Time;durP1;ratioP1;P1;durP2;ratioP2;P2;SDS_P1;SDS_P2;PMS_P1;PMS_P2;Temp;Humidity;BMP_temperature;BMP_pressure;BME280_temperature;BME280_humidity;BME280_pressure;Samples;Min_cycle;Max_cycle;Signal;HPM_P1;HPM_P2
2023/04/01 00:00:45;;;;;;;12.32;10.32;;;22.90;46.30;;;;;;5039650;28;20025;-64
2023/04/01 00:03:11;;;;;;;13.18;11.00;;;22.90;46.30;;;;;;5040683;28;20469;-63
2023/04/01 00:05:37;;;;;;;13.15;10.65;;;22.90;46.80;;;;;;5041414;28;20039;-63
2023/04/01 00:08:02;;;;;;;11.65;10.25;;;22.90;46.30;;;;;;5040902;28;20033;-63
2023/04/01 00:10:28;;;;;;;12.00;10.50;;;22.80;46.20;;;;;;5041325;28;20444;-64
2023/04/01 00:12:54;;;;;;;13.18;10.70;;;22.80;46.30;;;;;;5041173;28;20044;-64
2023/04/01 00:15:20;;;;;;;10.35;9.25;;;22.80;46.30;;;;;;5036858;28;20549;-62
2023/04/01 00:17:46;;;;;;;11.38;9.50;;;22.80;46.30;;;;;;5039993;28;20036;-64
2023/04/01 00:20:12;;;;;;;10.98;9.65;;;22.80;46.30;;;;;;5043511;28;20434;-63
2023/04/01 00:22:38;;;;;;;10.75;9.40;;;22.80;46.30;;;;;;5041739;28;20766;-63
2023/04/01 00:25:04;;;;;;;10.40;8.90;;;22.70;46.30;;;;;;5040996;28;20041;-63
2023/04/01 00:27:30;;;;;;;10.38;8.90;;;22.70;46.30;;;;;;5042746;28;20045;-64
2023/04/01 00:29:55;;;;;;;9.43;8.43;;;22.70;46.80;;;;;;5041104;28;20037;-64
2023/04/01 00:32:21;;;;;;;10.57;8.15;;;22.70;46.30;;;;;;5043617;28;20397;-64
2023/04/01 00:34:51;;;;;;;10.43;8.63;;;22.70;46.40;;;;;;5039167;28;20018;-63
2023/04/01 00:37:17;;;;;;;10.45;7.97;;;22.70;46.30;;;;;;5040029;28;20053;-64
2023/04/01 00:39:44;;;;;;;9.55;7.55;;;22.70;46.80;;;;;;5037978;28;20068;-64
2023/04/01 00:42:10;;;;;;;9.02;7.80;;;22.70;46.40;;;;;;5038302;28;20029;-64
2023/04/01 00:44:38;;;;;;;9.32;7.72;;;22.60;46.40;;;;;;5039497;28;20040;-63
2023/04/01 00:47:04;;;;;;;8.77;7.18;;;22.60;46.40;;;;;;5039518;28;20060;-63
2023/04/01 00:49:37;;;;;;;7.97;7.00;;;22.60;46.40;;;;;;5036980;28;20115;-63
2023/04/01 00:52:05;;;;;;;9.30;7.38;;;22.60;46.40;;;;;;5043632;28;20397;-64
2023/04/01 00:54:32;;;;;;;8.07;6.22;;;22.50;46.40;;;;;;5039189;28;20032;-64
2023/04/01 00:57:05;;;;;;;8.75;7.32;;;22.50;46.40;;;;;;5039075;28;20494;-64
2023/04/01 00:59:35;;;;;;;7.43;6.03;;;22.50;46.40;;;;;;5036445;28;20163;-64
2023/04/01 01:02:07;;;;;;;7.68;6.30;;;22.50;46.40;;;;;;5041580;28;20017;-63
2023/04/01 01:04:35;;;;;;;7.32;6.00;;;22.50;47.00;;;;;;5041300;28;20106;-63
2023/04/01 01:07:03;;;;;;;7.85;6.40;;;22.40;46.50;;;;;;5038990;28;20033;-63
2023/04/01 01:09:52;;;;;;;7.25;5.72;;;22.40;46.40;;;;;;5035248;28;20021;-61
2023/04/01 01:12:45;;;;;;;8.02;6.25;;;22.40;46.50;;;;;;5037413;28;20104;-63
2023/04/01 01:15:36;;;;;;;6.93;5.60;;;22.40;46.50;;;;;;5041815;28;20116;-63
2023/04/01 01:18:09;;;;;;;6.50;5.10;;;22.40;46.50;;;;;;5040199;28;20025;-63
2023/04/01 01:20:52;;;;;;;6.63;5.38;;;22.30;46.50;;;;;;5035052;28;20100;-63
2023/04/01 01:23:30;;;;;;;6.60;5.22;;;22.30;46.50;;;;;;5037817;28;20477;-63
2023/04/01 01:26:04;;;;;;;6.63;5.55;;;22.30;46.60;;;;;;5039292;28;20025;-63
2023/04/01 01:28:42;;;;;;;6.35;5.05;;;22.30;46.70;;;;;;5038388;28;20412;-63
2023/04/01 01:31:34;;;;;;;6.47;5.30;;;22.30;46.60;;;;;;5039835;28;20025;-63
2023/04/01 01:34:02;;;;;;;6.40;4.72;;;22.30;46.60;;;;;;5038082;28;20049;-63
2023/04/01 01:36:34;;;;;;;5.55;4.63;;;22.20;46.60;;;;;;5035466;28;20024;-64
2023/04/01 01:39:02;;;;;;;6.00;4.88;;;22.30;47.20;;;;;;5036265;28;20036;-63
2023/04/01 01:41:30;;;;;;;5.60;4.88;;;22.20;47.10;;;;;;5038725;28;20132;-63
2023/04/01 01:43:58;;;;;;;6.25;4.82;;;22.20;46.70;;;;;;5036039;28;20523;-63
2023/04/01 01:46:28;;;;;;;5.43;4.13;;;22.20;46.60;;;;;;5040423;28;20036;-63
2023/04/01 01:48:55;;;;;;;5.45;4.32;;;22.20;46.70;;;;;;5036276;28;20550;-63
2023/04/01 01:51:22;;;;;;;5.63;4.55;;;22.20;46.70;;;;;;5039072;28;20408;-64
2023/04/01 01:53:48;;;;;;;5.07;4.35;;;22.20;46.70;;;;;;5039899;28;20553;-63
2023/04/01 01:56:13;;;;;;;4.68;4.00;;;22.20;46.70;;;;;;5036720;28;20105;-63
2023/04/01 01:58:49;;;;;;;5.63;4.10;;;22.10;46.70;;;;;;5038951;28;20032;-63
2023/04/01 02:01:20;;;;;;;4.85;3.60;;;22.10;46.70;;;;;;5037105;28;20022;-63
2023/04/01 02:03:46;;;;;;;5.15;4.00;;;22.10;46.70;;;;;;5038475;28;20021;-64
2023/04/01 02:06:17;;;;;;;4.72;3.90;;;22.10;46.80;;;;;;5036339;28;20435;-63
2023/04/01 02:08:49;;;;;;;4.13;3.30;;;22.10;47.30;;;;;;5040308;28;20560;-63
2023/04/01 02:11:22;;;;;;;4.63;3.78;;;22.10;46.80;;;;;;5039562;28;20477;-63
2023/04/01 02:14:10;;;;;;;5.13;3.75;;;22.10;46.80;;;;;;5037415;28;20063;-63
2023/04/01 02:16:43;;;;;;;4.88;3.60;;;22.10;46.80;;;;;;5039929;28;20068;-63
2023/04/01 02:19:12;;;;;;;4.38;3.67;;;22.00;46.70;;;;;;5037142;28;20017;-63
2023/04/01 02:21:39;;;;;;;5.05;3.80;;;22.00;46.70;;;;;;5032315;28;20026;-63
2023/04/01 02:24:10;;;;;;;5.35;3.65;;;22.00;46.70;;;;;;5039708;28;20036;-63
2023/04/01 02:26:35;;;;;;;4.22;3.28;;;22.00;46.80;;;;;;5037439;28;20065;-63
2023/04/01 02:29:03;;;;;;;4.47;3.28;;;22.00;46.70;;;;;;5042518;28;20073;-63
2023/04/01 02:31:30;;;;;;;4.35;3.42;;;22.00;46.70;;;;;;5038257;28;20033;-63
2023/04/01 02:33:56;;;;;;;4.53;3.67;;;22.00;46.70;;;;;;5044605;28;20033;-63
2023/04/01 02:36:22;;;;;;;4.30;3.35;;;22.00;46.80;;;;;;5040812;28;20418;-63
2023/04/01 02:38:50;;;;;;;4.13;3.05;;;21.90;46.80;;;;;;5043096;28;20033;-63
2023/04/01 02:41:16;;;;;;;4.57;3.45;;;22.00;46.90;;;;;;5044017;28;20026;-63
2023/04/01 02:43:42;;;;;;;3.53;3.10;;;21.90;46.90;;;;;;5042129;28;20040;-63
2023/04/01 02:46:07;;;;;;;3.80;2.85;;;21.90;46.80;;;;;;5043393;28;20036;-63
2023/04/01 02:48:33;;;;;;;4.20;2.97;;;21.90;46.80;;;;;;5048510;28;20087;-63
2023/04/01 02:50:59;;;;;;;4.45;3.00;;;21.90;46.90;;;;;;5042047;28;20034;-63
2023/04/01 02:53:25;;;;;;;4.15;3.17;;;21.90;46.80;;;;;;5043843;28;20068;-63
2023/04/01 02:55:51;;;;;;;4.00;2.92;;;21.90;46.80;;;;;;5040714;28;20039;-63
2023/04/01 02:58:17;;;;;;;3.88;3.15;;;21.90;46.80;;;;;;5039065;28;20014;-63
2023/04/01 03:00:43;;;;;;;4.43;3.25;;;21.80;46.80;;;;;;5043916;28;20512;-63
2023/04/01 03:03:13;;;;;;;4.30;3.20;;;21.80;46.80;;;;;;5040629;28;20036;-63
2023/04/01 03:05:39;;;;;;;4.10;3.20;;;21.80;46.80;;;;;;5040283;28;20497;-63
2023/04/01 03:08:06;;;;;;;3.40;2.67;;;21.80;46.80;;;;;;5040889;28;20057;-63
2023/04/01 03:10:31;;;;;;;3.40;2.83;;;21.80;46.80;;;;;;5043335;28;20033;-63
2023/04/01 03:12:57;;;;;;;3.38;2.50;;;21.80;46.90;;;;;;5041734;28;20047;-63
2023/04/01 03:15:23;;;;;;;3.13;2.42;;;21.80;46.90;;;;;;5037541;28;20052;-63
2023/04/01 03:17:48;;;;;;;3.53;2.70;;;21.80;46.90;;;;;;5040083;28;20078;-63
2023/04/01 03:20:15;;;;;;;4.10;3.00;;;21.80;46.80;;;;;;5043046;28;20459;-63
2023/04/01 03:22:41;;;;;;;3.83;2.70;;;21.80;46.80;;;;;;5037571;28;20095;-63
2023/04/01 03:25:07;;;;;;;3.40;2.50;;;21.70;46.70;;;;;;5041360;28;20037;-63
2023/04/01 03:27:35;;;;;;;3.88;2.72;;;21.70;46.80;;;;;;5041937;28;20040;-64
2023/04/01 03:30:01;;;;;;;3.55;2.80;;;21.70;46.80;;;;;;5039721;28;20396;-64
2023/04/01 03:32:27;;;;;;;3.25;2.45;;;21.70;46.70;;;;;;5041440;28;20465;-63
2023/04/01 03:34:53;;;;;;;3.42;2.60;;;21.70;46.70;;;;;;5042077;28;20044;-63
2023/04/01 03:37:18;;;;;;;3.38;2.60;;;21.70;46.70;;;;;;5039362;28;20370;-63
2023/04/01 03:39:45;;;;;;;3.42;2.60;;;21.70;46.70;;;;;;5040170;28;20112;-63
2023/04/01 03:42:11;;;;;;;3.45;2.47;;;21.70;46.70;;;;;;5039906;28;20235;-63
2023/04/01 03:44:36;;;;;;;3.65;2.50;;;21.70;46.70;;;;;;5041596;28;20133;-63
2023/04/01 03:47:02;;;;;;;3.53;2.40;;;21.70;46.70;;;;;;5039939;28;20032;-63
2023/04/01 03:49:28;;;;;;;2.95;2.13;;;21.70;46.80;;;;;;5040292;28;20108;-63
2023/04/01 03:51:53;;;;;;;3.42;2.30;;;21.70;46.70;;;;;;5040007;28;20029;-63
2023/04/01 03:54:20;;;;;;;3.03;2.20;;;21.70;46.80;;;;;;5041406;28;20108;-64
2023/04/01 03:56:46;;;;;;;3.33;2.20;;;21.60;46.70;;;;;;5036239;28;20025;-63
2023/04/01 03:59:12;;;;;;;2.97;2.10;;;21.60;46.70;;;;;;5040074;28;20032;-63
2023/04/01 04:01:38;;;;;;;3.20;2.10;;;21.60;46.80;;;;;;5039709;28;20044;-63
2023/04/01 04:04:04;;;;;;;3.22;2.38;;;21.60;46.80;;;;;;5037896;28;20022;-63
2023/04/01 04:06:30;;;;;;;2.75;1.90;;;21.60;46.80;;;;;;5041346;28;20037;-63
2023/04/01 04:08:56;;;;;;;2.70;2.10;;;21.60;47.30;;;;;;5036650;28;20040;-63
2023/04/01 04:11:22;;;;;;;3.20;2.22;;;21.60;46.80;;;;;;5040248;28;20029;-63
2023/04/01 04:13:49;;;;;;;2.90;2.13;;;21.60;46.80;;;;;;5039570;28;20553;-63
2023/04/01 04:16:15;;;;;;;3.17;2.20;;;21.60;46.80;;;;;;5038585;28;20029;-63
2023/04/01 04:18:41;;;;;;;3.00;2.05;;;21.60;46.70;;;;;;5042363;28;20025;-63
2023/04/01 04:21:06;;;;;;;2.80;2.05;;;21.60;46.70;;;;;;5040272;28;20029;-64
2023/04/01 04:23:33;;;;;;;2.90;2.10;;;21.60;46.70;;;;;;5037867;28;20033;-63
2023/04/01 04:26:06;;;;;;;2.70;2.00;;;21.60;47.00;;;;;;5040431;28;20025;-63
2023/04/01 04:28:33;;;;;;;2.53;1.80;;;21.50;46.70;;;;;;5037274;28;20041;-63
2023/04/01 04:30:58;;;;;;;3.00;1.90;;;21.60;46.70;;;;;;5040374;28;20025;-63
2023/04/01 04:33:25;;;;;;;2.83;1.98;;;21.50;46.60;;;;;;5040350;28;20511;-63
2023/04/01 04:35:55;;;;;;;2.80;1.95;;;21.50;46.70;;;;;;5039554;28;20106;-63
2023/04/01 04:38:21;;;;;;;2.60;1.83;;;21.50;46.70;;;;;;5039386;28;20131;-63
2023/04/01 04:40:46;;;;;;;2.75;1.85;;;21.50;46.70;;;;;;5039960;28;20075;-63
2023/04/01 04:43:13;;;;;;;2.67;1.65;;;21.50;46.70;;;;;;5037215;28;20481;-63
2023/04/01 04:45:40;;;;;;;2.30;1.70;;;21.50;46.80;;;;;;5039814;28;20025;-64
2023/04/01 04:48:08;;;;;;;2.42;1.60;;;21.50;46.80;;;;;;5039955;28;20037;-63
2023/04/01 04:50:33;;;;;;;2.60;2.00;;;21.50;46.70;;;;;;5037189;28;20033;-63
2023/04/01 04:52:59;;;;;;;2.63;1.73;;;21.40;46.60;;;;;;5038545;28;20033;-63
2023/04/01 04:55:24;;;;;;;2.72;1.98;;;21.40;46.50;;;;;;5036958;28;20021;-63
2023/04/01 04:57:50;;;;;;;2.80;1.85;;;21.50;46.70;;;;;;5039713;28;20060;-63
2023/04/01 05:00:16;;;;;;;2.50;1.70;;;21.40;46.60;;;;;;5040735;28;20029;-63
2023/04/01 05:02:41;;;;;;;2.63;1.58;;;21.40;47.10;;;;;;5039677;28;20041;-63
2023/04/01 05:05:07;;;;;;;2.55;1.63;;;21.40;46.60;;;;;;5042077;28;20507;-63
2023/04/01 05:07:34;;;;;;;2.40;1.60;;;21.40;46.70;;;;;;5037679;28;20040;-63
2023/04/01 05:10:00;;;;;;;2.55;1.77;;;21.40;47.20;;;;;;5039268;28;20033;-63
2023/04/01 05:12:25;;;;;;;2.38;1.65;;;21.40;46.70;;;;;;5039097;28;20029;-64
2023/04/01 05:14:51;;;;;;;2.10;1.40;;;21.40;46.70;;;;;;5039123;28;20473;-64
2023/04/01 05:17:16;;;;;;;2.10;1.48;;;21.40;46.70;;;;;;5039330;28;20493;-64
2023/04/01 05:19:42;;;;;;;2.03;1.45;;;21.40;46.70;;;;;;5037343;28;20033;-63
2023/04/01 05:22:08;;;;;;;2.17;1.50;;;21.40;46.70;;;;;;5037328;28;20029;-63
2023/04/01 05:24:34;;;;;;;2.30;1.50;;;21.40;46.70;;;;;;5042551;28;20040;-63
2023/04/01 05:26:59;;;;;;;2.20;1.50;;;21.40;46.70;;;;;;5040190;28;20041;-63
2023/04/01 05:29:26;;;;;;;1.77;1.27;;;21.40;46.60;;;;;;5044382;28;20496;-63
2023/04/01 05:31:52;;;;;;;1.73;1.25;;;21.30;46.60;;;;;;5037943;28;20143;-63
2023/04/01 05:34:18;;;;;;;2.40;1.48;;;21.30;46.60;;;;;;5036893;28;20477;-63
2023/04/01 05:36:44;;;;;;;2.22;1.50;;;21.30;46.60;;;;;;5040897;28;20025;-63
2023/04/01 05:39:10;;;;;;;1.92;1.25;;;21.30;46.60;;;;;;5035390;28;20385;-63
2023/04/01 05:41:36;;;;;;;2.17;1.50;;;21.30;46.70;;;;;;5032909;28;20120;-64
2023/04/01 05:44:02;;;;;;;2.20;1.30;;;21.30;46.70;;;;;;5036955;28;20040;-63
2023/04/01 05:46:28;;;;;;;2.00;1.50;;;21.30;46.70;;;;;;5036325;28;20033;-64
2023/04/01 05:48:54;;;;;;;2.72;1.70;;;21.30;46.70;;;;;;5036153;28;20071;-64
2023/04/01 05:51:20;;;;;;;1.70;1.30;;;21.30;46.70;;;;;;5040020;28;20416;-64
2023/04/01 05:53:46;;;;;;;2.08;1.45;;;21.30;46.70;;;;;;5041291;28;20025;-64
2023/04/01 05:56:12;;;;;;;1.85;1.20;;;21.30;47.30;;;;;;5040250;28;20025;-63
2023/04/01 05:58:38;;;;;;;2.20;1.30;;;21.30;46.70;;;;;;5037078;28;20108;-63
2023/04/01 06:01:09;;;;;;;1.80;1.30;;;21.30;46.70;;;;;;5040072;28;20496;-64
2023/04/01 06:03:35;;;;;;;1.80;1.30;;;21.30;46.80;;;;;;5042531;28;20025;-64
2023/04/01 06:06:01;;;;;;;1.67;1.30;;;21.20;46.70;;;;;;5042144;28;20040;-64
2023/04/01 06:08:30;;;;;;;1.90;1.27;;;21.20;46.80;;;;;;5040551;28;20474;-64
2023/04/01 06:11:01;;;;;;;1.90;1.30;;;21.20;47.30;;;;;;5039932;28;20128;-64
2023/04/01 06:14:02;;;;;;;2.40;1.42;;;21.20;46.70;;;;;;5041801;28;20037;-64
2023/04/01 06:16:37;;;;;;;1.60;1.20;;;21.30;46.80;;;;;;5043970;28;20032;-64
2023/04/01 06:19:05;;;;;;;1.80;1.23;;;21.30;46.80;;;;;;5043920;28;20112;-64
2023/04/01 06:21:45;;;;;;;1.80;1.30;;;21.20;46.70;;;;;;5042727;28;20082;-64
2023/04/01 06:24:47;;;;;;;1.70;1.20;;;21.20;46.70;;;;;;5041954;28;20028;-63
2023/04/01 06:27:36;;;;;;;1.60;1.13;;;21.20;46.50;;;;;;5039087;28;20048;-64
2023/04/01 06:30:11;;;;;;;1.40;1.00;;;21.20;46.40;;;;;;5039972;28;20079;-64
2023/04/01 06:33:04;;;;;;;1.70;1.10;;;21.20;46.50;;;;;;5042431;28;20025;-64
2023/04/01 06:35:43;;;;;;;1.75;1.20;;;21.20;46.30;;;;;;5044890;28;20053;-64
2023/04/01 06:38:30;;;;;;;1.92;1.10;;;21.20;46.40;;;;;;5039934;28;20036;-64
2023/04/01 06:41:15;;;;;;;1.38;1.02;;;21.10;46.30;;;;;;5040991;28;20385;-64
2023/04/01 06:44:17;;;;;;;1.10;0.90;;;21.10;46.10;;;;;;5042718;28;20037;-64
2023/04/01 06:46:47;;;;;;;1.23;0.90;;;21.10;46.00;;;;;;4995396;28;20044;-64
2023/04/01 06:49:15;;;;;;;1.30;1.00;;;21.10;46.20;;;;;;5040346;28;20028;-64
2023/04/01 06:52:10;;;;;;;1.27;1.00;;;21.10;46.10;;;;;;5039769;28;20083;-64
2023/04/01 06:54:49;;;;;;;1.20;0.90;;;21.10;46.00;;;;;;5039102;28;20354;-64
2023/04/01 06:57:33;;;;;;;1.17;1.00;;;21.10;45.80;;;;;;5046315;28;20024;-64
2023/04/01 07:00:03;;;;;;;1.63;1.10;;;21.10;46.00;;;;;;5040103;28;20515;-64
2023/04/01 07:02:53;;;;;;;1.35;1.00;;;21.10;45.90;;;;;;5073706;28;20025;-64
2023/04/01 07:05:19;;;;;;;1.48;0.82;;;21.10;45.80;;;;;;5039294;28;20160;-64
2023/04/01 07:07:50;;;;;;;1.73;1.00;;;21.10;45.90;;;;;;5044345;28;20078;-63
2023/04/01 07:10:47;;;;;;;1.42;0.90;;;21.10;46.00;;;;;;5041455;28;20033;-64
2023/04/01 07:13:21;;;;;;;0.75;0.70;;;21.10;45.90;;;;;;5045280;28;20519;-64
2023/04/01 07:16:04;;;;;;;0.80;0.80;;;21.10;45.90;;;;;;5041540;28;20029;-64
2023/04/01 07:18:44;;;;;;;1.30;0.85;;;21.10;45.80;;;;;;5044727;28;20463;-64
2023/04/01 07:21:40;;;;;;;1.23;0.88;;;21.00;45.80;;;;;;5043084;28;20057;-64
2023/04/01 07:24:34;;;;;;;1.20;0.80;;;21.00;45.80;;;;;;5042661;28;20040;-62
2023/04/01 07:27:00;;;;;;;0.70;0.70;;;21.10;45.80;;;;;;5039482;28;20053;-64
2023/04/01 07:29:26;;;;;;;1.23;0.85;;;21.00;45.80;;;;;;5037644;28;20032;-64
2023/04/01 07:32:01;;;;;;;1.13;0.75;;;21.00;45.80;;;;;;5040740;28;20448;-64
2023/04/01 07:34:31;;;;;;;0.80;0.60;;;21.00;45.80;;;;;;5042666;28;20036;-63
2023/04/01 07:37:08;;;;;;;0.73;0.70;;;21.00;45.80;;;;;;5042392;28;20485;-64
2023/04/01 07:39:43;;;;;;;1.23;0.80;;;21.00;45.80;;;;;;5038450;28;20017;-65
2023/04/01 07:42:23;;;;;;;1.02;0.82;;;21.00;45.80;;;;;;5039955;28;20117;-64
2023/04/01 07:45:02;;;;;;;0.85;0.63;;;21.00;45.90;;;;;;5040913;28;20079;-64
2023/04/01 07:47:46;;;;;;;0.77;0.63;;;21.00;45.90;;;;;;5039513;28;20053;-64
2023/04/01 07:50:49;;;;;;;0.85;0.70;;;21.00;45.90;;;;;;5042459;28;20056;-64
2023/04/01 07:53:42;;;;;;;0.60;0.60;;;21.00;46.00;;;;;;5039535;28;20061;-64
2023/04/01 07:56:36;;;;;;;0.88;0.70;;;21.00;46.00;;;;;;5040398;28;20025;-64
2023/04/01 07:59:01;;;;;;;0.70;0.60;;;21.00;46.00;;;;;;5038967;28;20493;-64
2023/04/01 08:02:08;;;;;;;1.27;0.80;;;21.00;46.10;;;;;;5036824;28;20056;-64
2023/04/01 08:04:36;;;;;;;1.15;0.60;;;21.00;46.10;;;;;;5039717;28;20033;-64
2023/04/01 08:07:09;;;;;;;1.03;0.70;;;21.00;46.10;;;;;;5041435;28;20480;-63
2023/04/01 08:09:51;;;;;;;0.65;0.60;;;20.90;46.00;;;;;;5071159;28;20492;-64
2023/04/01 08:12:36;;;;;;;1.00;0.60;;;20.90;46.10;;;;;;5039666;28;20022;-64
2023/04/01 08:15:12;;;;;;;1.23;0.70;;;21.00;46.10;;;;;;5040971;28;20470;-64
2023/04/01 08:17:54;;;;;;;0.63;0.60;;;21.00;46.20;;;;;;5040989;28;20451;-64
2023/04/01 08:20:34;;;;;;;0.77;0.60;;;20.90;46.10;;;;;;5039237;28;20473;-64
2023/04/01 08:23:18;;;;;;;1.15;0.60;;;20.90;46.20;;;;;;5039005;28;20121;-64
2023/04/01 08:25:56;;;;;;;0.70;0.52;;;20.90;46.10;;;;;;5041859;28;20033;-64
2023/04/01 08:28:34;;;;;;;0.70;0.60;;;21.00;46.20;;;;;;5038042;28;20037;-64
2023/04/01 08:31:10;;;;;;;0.70;0.60;;;20.90;46.20;;;;;;5039022;28;20076;-65
2023/04/01 08:33:38;;;;;;;0.73;0.50;;;20.90;46.20;;;;;;5042197;28;20024;-65
2023/04/01 08:36:35;;;;;;;0.90;0.60;;;20.90;46.20;;;;;;5036950;28;20040;-64
2023/04/01 08:39:15;;;;;;;0.60;0.60;;;20.90;46.20;;;;;;5036525;28;20852;-64
2023/04/01 08:42:01;;;;;;;0.77;0.52;;;20.90;46.20;;;;;;5040426;28;20469;-65
2023/04/01 08:44:53;;;;;;;0.50;0.50;;;20.90;46.30;;;;;;5036525;28;20056;-65
2023/04/01 08:47:56;;;;;;;0.52;0.50;;;20.90;46.20;;;;;;5038785;28;20429;-65
2023/04/01 08:50:39;;;;;;;0.70;0.50;;;20.90;46.70;;;;;;5040157;28;20035;-64
2023/04/01 08:53:26;;;;;;;1.10;0.60;;;20.90;46.20;;;;;;5039221;28;20025;-64
2023/04/01 08:56:20;;;;;;;0.50;0.50;;;20.90;46.20;;;;;;5038394;28;20085;-65
2023/04/01 08:59:05;;;;;;;0.93;0.65;;;20.90;46.30;;;;;;5039964;28;20385;-65
2023/04/01 09:02:01;;;;;;;0.57;0.55;;;20.90;46.30;;;;;;5037777;28;20041;-64
2023/04/01 09:04:46;;;;;;;0.57;0.50;;;20.90;46.30;;;;;;5037695;28;20021;-64
2023/04/01 09:07:45;;;;;;;0.90;0.60;;;20.90;46.40;;;;;;5041863;28;20075;-64
2023/04/01 09:10:16;;;;;;;0.50;0.50;;;20.90;46.40;;;;;;5031975;28;20440;-64
2023/04/01 09:13:09;;;;;;;1.30;0.60;;;20.90;46.40;;;;;;5037053;28;20118;-64
2023/04/01 09:15:41;;;;;;;0.85;0.57;;;20.90;46.40;;;;;;5038675;28;20029;-65
2023/04/01 09:18:24;;;;;;;0.75;0.60;;;20.90;46.50;;;;;;5038452;28;20021;-64
2023/04/01 09:21:23;;;;;;;0.70;0.70;;;20.90;46.40;;;;;;5040010;28;20500;-63
2023/04/01 09:24:27;;;;;;;0.63;0.50;;;20.90;46.50;;;;;;5038943;28;20033;-64
2023/04/01 09:27:19;;;;;;;0.93;0.60;;;20.80;46.40;;;;;;4981276;28;20520;-64
2023/04/01 09:29:57;;;;;;;0.40;0.40;;;20.90;46.50;;;;;;4974072;28;20050;-63
2023/04/01 09:32:41;;;;;;;0.65;0.60;;;20.90;46.60;;;;;;5022431;28;20040;-64
2023/04/01 09:35:40;;;;;;;0.70;0.50;;;20.90;46.60;;;;;;5049066;28;20033;-65
2023/04/01 09:38:20;;;;;;;0.77;0.50;;;20.90;46.60;;;;;;5047135;28;20024;-65
2023/04/01 09:40:54;;;;;;;0.50;0.50;;;20.80;46.50;;;;;;5045080;28;20036;-65
2023/04/01 09:43:44;;;;;;;0.43;0.40;;;20.80;46.60;;;;;;5044942;28;20408;-64
2023/04/01 09:46:28;;;;;;;0.70;0.60;;;20.90;46.60;;;;;;5045583;28;20589;-64
2023/04/01 09:49:26;;;;;;;0.63;0.50;;;20.80;46.60;;;;;;5047353;28;20063;-64
2023/04/01 09:52:36;;;;;;;0.70;0.60;;;20.90;46.70;;;;;;5012376;28;20044;-64
2023/04/01 09:55:19;;;;;;;0.63;0.40;;;20.80;46.60;;;;;;5036899;28;20045;-64
2023/04/01 09:58:22;;;;;;;0.40;0.40;;;20.80;47.20;;;;;;5041505;28;20025;-64
2023/04/01 10:01:10;;;;;;;1.10;0.60;;;20.80;46.70;;;;;;5042940;28;20112;-64
2023/04/01 10:04:03;;;;;;;0.77;0.60;;;20.80;46.70;;;;;;5044867;28;20037;-64
2023/04/01 10:06:53;;;;;;;0.40;0.40;;;20.80;46.70;;;;;;5045204;28;20026;-65
2023/04/01 10:10:10;;;;;;;0.85;0.55;;;20.80;46.70;;;;;;5041850;28;20460;-64
2023/04/01 10:12:50;;;;;;;0.93;0.60;;;20.80;46.80;;;;;;5020590;28;20438;-64
2023/04/01 10:15:34;;;;;;;0.63;0.50;;;20.80;46.90;;;;;;5044644;28;20036;-64
2023/04/01 10:18:20;;;;;;;0.80;0.60;;;20.80;47.10;;;;;;5043663;28;20025;-64
2023/04/01 10:21:25;;;;;;;0.90;0.60;;;20.80;47.50;;;;;;5044589;28;20331;-64
2023/04/01 10:24:22;;;;;;;0.88;0.50;;;20.80;47.20;;;;;;5044058;28;20091;-64
2023/04/01 10:26:56;;;;;;;0.73;0.60;;;20.80;47.30;;;;;;5044365;28;20436;-64
2023/04/01 10:29:46;;;;;;;0.82;0.55;;;20.80;47.40;;;;;;5042889;28;20488;-64
2023/04/01 10:32:35;;;;;;;0.90;0.68;;;20.80;47.30;;;;;;5044570;28;20025;-64
2023/04/01 10:35:28;;;;;;;1.17;0.88;;;20.80;47.40;;;;;;5026256;28;20104;-65
2023/04/01 10:38:27;;;;;;;1.25;0.80;;;20.80;47.50;;;;;;5047659;28;20040;-64
2023/04/01 10:41:02;;;;;;;;;;;20.80;47.30;;;;;;5045982;28;20025;-64
2023/04/01 10:43:33;;;;;;;0.52;0.50;;;20.80;47.40;;;;;;5043803;28;20460;-64
2023/04/01 10:46:02;;;;;;;0.70;0.60;;;20.80;47.40;;;;;;5041797;28;20056;-64
2023/04/01 10:48:52;;;;;;;0.50;0.50;;;20.80;47.30;;;;;;5042735;28;20036;-64
2023/04/01 10:51:45;;;;;;;0.70;0.52;;;20.80;47.40;;;;;;5042149;28;20033;-65
2023/04/01 10:54:36;;;;;;;0.70;0.60;;;20.80;47.30;;;;;;5040738;28;20500;-64
2023/04/01 10:57:23;;;;;;;0.73;0.57;;;20.80;47.40;;;;;;5042673;28;20159;-64
2023/04/01 10:59:51;;;;;;;0.80;0.55;;;20.80;47.50;;;;;;5041178;28;20034;-64
2023/04/01 11:02:44;;;;;;;1.25;0.60;;;20.80;47.40;;;;;;5040296;28;20072;-64
2023/04/01 11:05:28;;;;;;;0.95;0.60;;;20.80;47.50;;;;;;5043072;28;20390;-64
2023/04/01 11:08:24;;;;;;;1.27;0.70;;;20.80;47.50;;;;;;5041968;28;20036;-64
2023/04/01 11:11:21;;;;;;;0.65;0.65;;;20.80;47.50;;;;;;5041538;28;20033;-64
2023/04/01 11:14:03;;;;;;;0.90;0.60;;;20.80;47.50;;;;;;5042898;28;20031;-65
2023/04/01 11:16:53;;;;;;;0.93;0.60;;;20.80;47.60;;;;;;5041868;28;20548;-64
2023/04/01 11:19:35;;;;;;;1.05;0.60;;;20.70;47.60;;;;;;5048841;28;20548;-64
2023/04/01 11:22:38;;;;;;;1.38;0.60;;;20.80;47.60;;;;;;5043414;28;20073;-64
2023/04/01 11:25:22;;;;;;;0.80;0.60;;;20.70;47.50;;;;;;5048263;28;20421;-64
2023/04/01 11:27:54;;;;;;;0.77;0.60;;;20.80;47.70;;;;;;5040406;28;20463;-64
2023/04/01 11:30:47;;;;;;;0.90;0.60;;;20.80;48.10;;;;;;5041814;28;20476;-64
2023/04/01 11:33:43;;;;;;;0.85;0.63;;;20.90;48.30;;;;;;5040463;28;20044;-64
2023/04/01 11:36:37;;;;;;;0.80;0.70;;;20.90;48.20;;;;;;5042194;28;20334;-64
2023/04/01 11:39:12;;;;;;;1.33;0.80;;;21.00;48.00;;;;;;5041965;28;20108;-64
2023/04/01 11:41:48;;;;;;;0.90;0.68;;;21.00;47.80;;;;;;5039168;28;20021;-63
2023/04/01 11:44:39;;;;;;;0.95;0.68;;;21.10;47.80;;;;;;5041326;28;20370;-63
2023/04/01 11:47:53;;;;;;;1.10;0.70;;;21.10;47.80;;;;;;5040056;28;20033;-64
2023/04/01 11:50:45;;;;;;;1.15;0.70;;;21.20;47.90;;;;;;5001866;28;20109;-63
2023/04/01 11:53:23;;;;;;;2.00;0.88;;;21.30;47.80;;;;;;5040735;28;20082;-64
2023/04/01 11:55:57;;;;;;;1.55;0.68;;;21.30;47.60;;;;;;5042895;28;20123;-64
2023/04/01 11:58:47;;;;;;;2.13;0.80;;;21.40;47.40;;;;;;5036654;28;20103;-63
2023/04/01 12:01:33;;;;;;;1.30;0.70;;;21.40;47.40;;;;;;5041036;28;20032;-64
2023/04/01 12:04:26;;;;;;;1.27;0.80;;;21.50;47.30;;;;;;5038479;28;20021;-64
2023/04/01 12:06:55;;;;;;;1.98;0.90;;;21.50;47.20;;;;;;5049507;28;20025;-65
2023/04/01 12:09:36;;;;;;;1.45;0.70;;;21.60;47.10;;;;;;5053458;28;20033;-64
2023/04/01 12:12:23;;;;;;;1.60;0.98;;;21.60;47.10;;;;;;5052897;28;20034;-64
2023/04/01 12:15:48;;;;;;;1.70;0.75;;;21.70;47.20;;;;;;5053380;28;20058;-64
2023/04/01 12:18:46;;;;;;;2.25;0.80;;;21.70;46.90;;;;;;4962733;28;20073;-63
2023/04/01 12:21:25;;;;;;;1.67;0.80;;;21.80;46.80;;;;;;5049806;28;20029;-64
2023/04/01 12:24:27;;;;;;;1.52;0.82;;;21.80;47.20;;;;;;5051640;28;20519;-64
2023/04/01 12:27:15;;;;;;;1.15;0.70;;;21.90;46.70;;;;;;5054415;28;20037;-63
2023/04/01 12:30:09;;;;;;;2.55;1.00;;;22.00;46.50;;;;;;5050617;28;20515;-64
2023/04/01 12:33:13;;;;;;;1.67;1.08;;;22.00;46.60;;;;;;5048676;28;20026;-64
2023/04/01 12:36:03;;;;;;;1.50;0.73;;;22.00;46.70;;;;;;5055230;28;20021;-64
2023/04/01 12:38:31;;;;;;;1.75;0.90;;;22.10;46.40;;;;;;5050200;28;20021;-64
2023/04/01 12:41:21;;;;;;;2.40;0.90;;;22.20;46.30;;;;;;5049829;28;20089;-63
2023/04/01 12:44:14;;;;;;;1.40;0.90;;;22.20;46.70;;;;;;5049271;28;20033;-64
2023/04/01 12:46:46;;;;;;;1.83;0.80;;;22.20;46.20;;;;;;5053312;28;20047;-64
2023/04/01 12:49:27;;;;;;;1.75;0.90;;;22.20;46.10;;;;;;5055820;28;20029;-64
2023/04/01 12:52:16;;;;;;;1.70;0.85;;;22.30;46.10;;;;;;5053353;28;20080;-63
2023/04/01 12:55:19;;;;;;;2.58;1.02;;;22.30;46.00;;;;;;5052011;28;20472;-64
2023/04/01 12:58:20;;;;;;;2.10;0.90;;;22.30;46.00;;;;;;5056798;28;20079;-63
2023/04/01 13:00:57;;;;;;;1.67;0.85;;;22.40;45.90;;;;;;5055767;28;20354;-64
2023/04/01 13:03:55;;;;;;;2.00;1.00;;;22.40;45.90;;;;;;5052465;28;20021;-64
2023/04/01 13:06:49;;;;;;;1.50;0.90;;;22.50;45.70;;;;;;5038405;28;20129;-64
2023/04/01 13:09:20;;;;;;;2.17;0.77;;;22.50;45.60;;;;;;5054109;28;20024;-64
2023/04/01 13:11:52;;;;;;;1.15;0.80;;;22.50;45.60;;;;;;5047720;28;20030;-62
2023/04/01 13:14:46;;;;;;;1.02;0.70;;;22.50;45.60;;;;;;5054968;28;20025;-64
2023/04/01 13:17:50;;;;;;;1.75;0.70;;;22.60;46.00;;;;;;5062950;28;20033;-65
2023/04/01 13:20:23;;;;;;;1.52;0.80;;;22.60;45.60;;;;;;5056002;28;20025;-64
2023/04/01 13:23:11;;;;;;;1.42;0.80;;;22.70;45.50;;;;;;5056648;28;20081;-61
2023/04/01 13:26:00;;;;;;;1.40;0.85;;;22.70;45.50;;;;;;5052896;28;20025;-64
2023/04/01 13:28:32;;;;;;;2.03;0.80;;;22.70;45.50;;;;;;5043044;28;20041;-64
2023/04/01 13:31:20;;;;;;;1.60;0.85;;;22.70;45.30;;;;;;5051420;28;20029;-64
2023/04/01 13:34:04;;;;;;;1.48;0.82;;;22.80;45.30;;;;;;5052786;28;20036;-64
2023/04/01 13:37:16;;;;;;;1.88;0.90;;;22.80;45.40;;;;;;5045773;28;20397;-64